createdAt,value
2023-01-17T00:00:03.606Z,92659.59
2023-01-17T00:02:35.876Z,92655.44
2023-01-17T00:05:18.553Z,92663.81
2023-01-17T00:08:00.909Z,92657.47
2023-01-17T00:10:31.772Z,92650.53
2023-01-17T00:13:03.570Z,92651.84
2023-01-17T00:15:37.005Z,92653.34
2023-01-17T00:18:07.071Z,92653.34
2023-01-17T00:20:49.380Z,92656.69
2023-01-17T00:23:34.217Z,92659.06
2023-01-17T00:26:07.267Z,92662.38
2023-01-17T00:28:36.448Z,92670.66
2023-01-17T00:31:07.903Z,92670.41
2023-01-17T00:33:35.766Z,92669.88
2023-01-17T00:36:04.803Z,92675.78
2023-01-17T00:38:33.719Z,92676.75
2023-01-17T00:41:06.365Z,92673.34
2023-01-17T00:43:48.711Z,92683.16
2023-01-17T00:46:34.159Z,92684.97
2023-01-17T00:49:16.675Z,92695.06
2023-01-17T00:51:58.995Z,92689.91
2023-01-17T00:54:41.326Z,92686.78
2023-01-17T00:57:23.943Z,92689.59
2023-01-17T01:00:06.954Z,92689.91
2023-01-17T01:02:52.779Z,92700.19
2023-01-17T01:05:35.645Z,92704.81
2023-01-17T01:08:18.960Z,92707.34
2023-01-17T01:11:03.457Z,92708.66
2023-01-17T01:13:47.199Z,92714.88
2023-01-17T01:16:30.205Z,92706.31
2023-01-17T01:19:15.171Z,92709.13
2023-01-17T01:21:57.896Z,92710.88
2023-01-17T01:24:40.365Z,92719.41
2023-01-17T01:27:22.812Z,92714.78
2023-01-17T01:30:05.078Z,92717.53
2023-01-17T01:32:48.049Z,92715.47
2023-01-17T01:35:20.729Z,92715.34
2023-01-17T01:37:50.542Z,92709.38
2023-01-17T01:40:22.174Z,92707.50
2023-01-17T01:42:53.801Z,92710.88
2023-01-17T01:45:25.700Z,92717.53
2023-01-17T01:48:01.917Z,92715.00
2023-01-17T01:50:38.973Z,92718.06
2023-01-17T01:53:10.605Z,92706.88
2023-01-17T01:55:45.589Z,92710.22
2023-01-17T01:58:21.596Z,92730.03
2023-01-17T02:00:51.861Z,92717.91
2023-01-17T02:03:29.465Z,92716.28
2023-01-17T02:06:10.477Z,92727.94
2023-01-17T02:08:40.413Z,92719.16
2023-01-17T02:11:10.315Z,92716.34
2023-01-17T02:13:40.202Z,92723.47
2023-01-17T02:16:23.504Z,92729.28
2023-01-17T02:19:06.505Z,92718.94
2023-01-17T02:21:49.868Z,92721.59
2023-01-17T02:24:53.516Z,92735.28
2023-01-17T02:27:28.642Z,92727.09
2023-01-17T02:30:34.533Z,92720.88
2023-01-17T02:33:15.120Z,92729.75
2023-01-17T02:35:55.396Z,92727.78
2023-01-17T02:38:39.576Z,92718.69
2023-01-17T02:41:16.299Z,92720.91
2023-01-17T02:43:46.819Z,92720.00
2023-01-17T02:46:19.378Z,92723.53
2023-01-17T02:48:52.134Z,92716.47
2023-01-17T02:51:59.034Z,92720.09
2023-01-17T02:55:01.378Z,92727.97
2023-01-17T02:58:01.173Z,92730.72
2023-01-17T03:00:43.021Z,92732.81
2023-01-17T03:03:27.177Z,92738.13
2023-01-17T03:06:11.567Z,92732.41
2023-01-17T03:08:46.228Z,92734.25
2023-01-17T03:11:17.192Z,92733.47
2023-01-17T03:13:47.094Z,92728.69
2023-01-17T03:16:22.163Z,92728.47
2023-01-17T03:18:54.553Z,92738.94
2023-01-17T03:21:25.243Z,92734.66
2023-01-17T03:23:55.752Z,92732.53
2023-01-17T03:26:25.722Z,92736.59
2023-01-17T03:28:55.599Z,92736.03
2023-01-17T03:31:25.397Z,92736.94
2023-01-17T03:33:57.778Z,92737.50
2023-01-17T03:36:27.625Z,92736.78
2023-01-17T03:38:57.702Z,92739.91
2023-01-17T03:41:28.135Z,92734.88
2023-01-17T03:43:58.020Z,92736.00
2023-01-17T03:46:30.216Z,92737.56
2023-01-17T03:49:02.597Z,92741.16
2023-01-17T03:51:32.419Z,92736.47
2023-01-17T03:54:02.249Z,92738.50
2023-01-17T03:56:32.021Z,92745.88
2023-01-17T03:59:02.033Z,92745.44
2023-01-17T04:01:32.165Z,92748.44
2023-01-17T04:04:04.773Z,92748.25
2023-01-17T04:06:34.508Z,92742.06
2023-01-17T04:09:04.347Z,92747.31
2023-01-17T04:11:34.134Z,92748.34
2023-01-17T04:14:04.029Z,92742.84
2023-01-17T04:16:35.519Z,92748.00
2023-01-17T04:19:07.943Z,92747.00
2023-01-17T04:21:37.750Z,92743.97
2023-01-17T04:24:08.594Z,92734.22
2023-01-17T04:26:38.525Z,92735.22
2023-01-17T04:29:08.408Z,92739.72
2023-01-17T04:31:38.266Z,92744.06
2023-01-17T04:34:10.753Z,92734.31
2023-01-17T04:36:40.738Z,92743.59
2023-01-17T04:39:10.579Z,92743.28
2023-01-17T04:41:40.454Z,92738.25
2023-01-17T04:44:10.198Z,92743.06
2023-01-17T04:46:39.960Z,92736.34
2023-01-17T04:49:12.333Z,92731.59
2023-01-17T04:51:42.207Z,92728.94
2023-01-17T04:54:12.006Z,92736.31
2023-01-17T04:56:41.782Z,92737.66
2023-01-17T04:59:11.586Z,92741.59
2023-01-17T05:01:41.611Z,92738.41
2023-01-17T05:04:14.054Z,92743.34
2023-01-17T05:06:44.746Z,92743.13
2023-01-17T05:09:14.565Z,92748.06
2023-01-17T05:11:44.313Z,92749.97
2023-01-17T05:14:14.220Z,92758.28
2023-01-17T05:16:44.014Z,92761.75
2023-01-17T05:19:16.417Z,92753.13
2023-01-17T05:21:46.201Z,92768.16
2023-01-17T05:24:16.153Z,92769.97
2023-01-17T05:26:45.939Z,92766.78
2023-01-17T05:29:15.782Z,92772.44
2023-01-17T05:31:45.599Z,92772.22
2023-01-17T05:34:17.973Z,92771.53
2023-01-17T05:36:47.783Z,92764.69
2023-01-17T05:39:17.572Z,92777.59
2023-01-17T05:41:47.809Z,92779.28
2023-01-17T05:44:17.986Z,92782.44
2023-01-17T05:46:47.846Z,92787.34
2023-01-17T05:49:20.287Z,92795.06
2023-01-17T05:51:50.149Z,92780.84
2023-01-17T05:54:20.445Z,92792.84
2023-01-17T05:56:50.238Z,92791.06
2023-01-17T05:59:32.294Z,92789.94
2023-01-17T06:02:06.227Z,92789.25
2023-01-17T06:04:38.818Z,92786.09
2023-01-17T06:07:08.707Z,92778.84
2023-01-17T06:09:38.470Z,92781.53
2023-01-17T06:12:09.975Z,92781.66
2023-01-17T06:14:39.768Z,92785.22
2023-01-17T06:17:09.579Z,92777.47
2023-01-17T06:19:42.036Z,92774.69
2023-01-17T06:22:11.996Z,92775.13
2023-01-17T06:24:41.893Z,92767.63
2023-01-17T06:27:12.248Z,92756.53
2023-01-17T06:29:42.041Z,92762.00
2023-01-17T06:32:13.438Z,92757.09
2023-01-17T06:34:45.857Z,92760.69
2023-01-17T06:37:15.674Z,92757.19
2023-01-17T06:39:45.504Z,92756.41
2023-01-17T06:42:15.333Z,92758.44
2023-01-17T06:44:45.135Z,92763.47
2023-01-17T06:47:15.015Z,92755.41
2023-01-17T06:49:47.423Z,92763.91
2023-01-17T06:52:17.199Z,92762.69
2023-01-17T06:54:47.048Z,92759.34
2023-01-17T06:57:16.830Z,92767.28
2023-01-17T06:59:46.633Z,92760.22
2023-01-17T07:02:16.546Z,92759.91
2023-01-17T07:04:48.916Z,92752.50
2023-01-17T07:07:18.838Z,92751.81
2023-01-17T07:09:48.646Z,92755.06
2023-01-17T07:12:18.458Z,92754.28
2023-01-17T07:14:48.456Z,92761.34
2023-01-17T07:17:18.240Z,92759.56
2023-01-17T07:19:50.608Z,92755.63
2023-01-17T07:22:20.396Z,92757.06
2023-01-17T07:24:50.195Z,92751.81
2023-01-17T07:27:20.000Z,92750.44
2023-01-17T07:29:49.798Z,92739.06
2023-01-17T07:32:19.568Z,92748.44
2023-01-17T07:34:51.986Z,92738.44
2023-01-17T07:37:22.142Z,92740.81
2023-01-17T07:39:52.083Z,92746.91
2023-01-17T07:42:23.932Z,92745.00
2023-01-17T07:44:54.118Z,92733.13
2023-01-17T07:47:24.868Z,92730.94
2023-01-17T07:49:57.623Z,92726.69
2023-01-17T07:52:27.415Z,92717.38
2023-01-17T07:54:57.241Z,92717.00
2023-01-17T07:57:27.877Z,92713.88
2023-01-17T07:59:57.759Z,92707.97
2023-01-17T08:02:27.521Z,92712.06
2023-01-17T08:04:59.869Z,92716.31
2023-01-17T08:07:29.823Z,92722.78
2023-01-17T08:10:00.860Z,92711.50
2023-01-17T08:12:30.676Z,92718.72
2023-01-17T08:15:00.490Z,92708.41
2023-01-17T08:17:30.257Z,92704.25
2023-01-17T08:20:02.698Z,92713.09
2023-01-17T08:22:33.000Z,92719.19
2023-01-17T08:25:02.853Z,92722.06
2023-01-17T08:27:34.080Z,92716.19
2023-01-17T08:30:05.682Z,92721.50
2023-01-17T08:32:36.141Z,92725.91
2023-01-17T08:35:09.032Z,92716.00
2023-01-17T08:37:39.201Z,92720.69
2023-01-17T08:40:11.207Z,92716.38
2023-01-17T08:42:41.973Z,92713.19
2023-01-17T08:45:14.875Z,92711.06
2023-01-17T08:47:44.955Z,92716.97
2023-01-17T08:50:20.670Z,92708.09
2023-01-17T08:52:51.208Z,92703.13
2023-01-17T08:55:21.017Z,92695.19
2023-01-17T08:57:50.871Z,92684.41
2023-01-17T09:00:21.808Z,92681.63
2023-01-17T09:02:53.933Z,92684.94
2023-01-17T09:05:26.366Z,92689.03
2023-01-17T09:07:57.254Z,92709.69
2023-01-17T09:10:27.251Z,92692.81
2023-01-17T09:12:57.067Z,92701.03
2023-01-17T09:15:26.886Z,92698.81
2023-01-17T09:17:58.844Z,92704.00
2023-01-17T09:20:32.023Z,92703.28
2023-01-17T09:23:04.985Z,92707.84
2023-01-17T09:25:34.824Z,92707.66
2023-01-17T09:28:04.679Z,92702.59
2023-01-17T09:30:34.506Z,92697.31
2023-01-17T09:33:04.269Z,92696.19
2023-01-17T09:35:37.104Z,92688.66
2023-01-17T09:38:07.043Z,92677.97
2023-01-17T09:40:40.267Z,92673.44
2023-01-17T09:43:23.438Z,92666.53
2023-01-17T09:45:53.727Z,92670.56
2023-01-17T09:48:34.478Z,92671.69
2023-01-17T09:51:15.697Z,92650.16
2023-01-17T09:53:45.807Z,92643.59
2023-01-17T09:56:21.044Z,92631.91
2023-01-17T09:59:08.631Z,92606.63
2023-01-17T10:01:47.642Z,92595.66
2023-01-17T10:04:35.107Z,92583.97
2023-01-17T10:07:22.341Z,92590.38
2023-01-17T10:10:12.670Z,92591.94
2023-01-17T10:12:53.567Z,92578.56
2023-01-17T10:15:48.622Z,92585.41
2023-01-17T10:18:40.206Z,92578.19
2023-01-17T10:21:20.084Z,92575.00
2023-01-17T10:24:16.481Z,92584.59
2023-01-17T10:26:49.090Z,92587.31
2023-01-17T10:29:22.490Z,92580.91
2023-01-17T10:31:58.227Z,92586.59
2023-01-17T10:34:35.758Z,92587.94
2023-01-17T10:37:20.680Z,92570.75
2023-01-17T10:39:56.765Z,92572.63
2023-01-17T10:42:34.820Z,92566.94
2023-01-17T10:45:16.600Z,92575.88
2023-01-17T10:47:56.361Z,92569.19
2023-01-17T10:50:30.813Z,92565.22
2023-01-17T10:53:12.831Z,92572.97
2023-01-17T10:55:54.399Z,92567.72
2023-01-17T10:58:24.440Z,92554.72
2023-01-17T11:01:00.135Z,92558.63
2023-01-17T11:03:31.127Z,92557.50
2023-01-17T11:06:20.410Z,92547.38
2023-01-17T11:08:54.195Z,92542.94
2023-01-17T11:11:31.996Z,92534.59
2023-01-17T11:14:04.581Z,92526.81
2023-01-17T11:16:37.329Z,92517.41
2023-01-17T11:19:16.301Z,92511.94
2023-01-17T11:21:57.760Z,92502.31
2023-01-17T11:24:36.021Z,92498.06
2023-01-17T11:27:10.805Z,92495.53
2023-01-17T11:29:42.480Z,92488.28
2023-01-17T11:32:32.593Z,92493.25
2023-01-17T11:35:25.692Z,92496.16
2023-01-17T11:38:02.313Z,92491.47
2023-01-17T11:40:35.998Z,92493.75
2023-01-17T11:43:21.682Z,92494.03
2023-01-17T11:46:05.413Z,92486.00
2023-01-17T11:48:40.615Z,92486.78
2023-01-17T11:51:28.319Z,92476.59
2023-01-17T11:54:18.250Z,92483.91
2023-01-17T11:56:48.299Z,92478.66
2023-01-17T11:59:34.856Z,92461.81
2023-01-17T12:02:37.972Z,92472.63
2023-01-17T12:05:28.661Z,92470.41
2023-01-17T12:08:09.569Z,92457.63
2023-01-17T12:10:50.621Z,92442.16
2023-01-17T12:13:45.740Z,92442.09
2023-01-17T12:16:32.878Z,92435.16
2023-01-17T12:19:27.771Z,92430.38
2023-01-17T12:22:21.414Z,92421.38
2023-01-17T12:25:29.642Z,92415.91
2023-01-17T12:28:18.738Z,92410.88
2023-01-17T12:31:05.388Z,92397.78
2023-01-17T12:33:49.008Z,92407.47
2023-01-17T12:36:37.230Z,92400.28
2023-01-17T12:39:14.415Z,92383.94
2023-01-17T12:41:56.495Z,92378.22
2023-01-17T12:44:41.217Z,92372.28
2023-01-17T12:47:13.125Z,92364.75
2023-01-17T12:49:55.714Z,92361.88
2023-01-17T12:52:36.509Z,92368.63
2023-01-17T12:55:14.193Z,92346.03
2023-01-17T12:57:52.951Z,92352.06
2023-01-17T13:00:26.830Z,92345.63
2023-01-17T13:03:06.419Z,92348.34
2023-01-17T13:05:42.390Z,92341.41
2023-01-17T13:08:24.027Z,92334.34
2023-01-17T13:10:59.050Z,92334.34
2023-01-17T13:13:32.155Z,92341.03
2023-01-17T13:16:10.478Z,92336.91
2023-01-17T13:18:48.064Z,92332.44
2023-01-17T13:21:32.190Z,92327.28
2023-01-17T13:24:27.858Z,92323.88
2023-01-17T13:27:29.687Z,92322.06
2023-01-17T13:30:24.787Z,92312.19
2023-01-17T13:33:26.014Z,92310.97
2023-01-17T13:36:12.270Z,92309.44
2023-01-17T13:39:19.114Z,92313.56
2023-01-17T13:41:55.087Z,92316.16
2023-01-17T13:44:32.011Z,92305.03
2023-01-17T13:47:08.152Z,92304.28
2023-01-17T13:49:48.547Z,92295.53
2023-01-17T13:52:38.269Z,92290.34
2023-01-17T13:55:10.821Z,92295.31
2023-01-17T13:57:46.825Z,92291.94
2023-01-17T14:01:01.464Z,92277.38
2023-01-17T14:04:06.796Z,92289.25
2023-01-17T14:06:40.733Z,92281.19
2023-01-17T14:09:25.491Z,92270.03
2023-01-17T14:12:07.725Z,92266.38
2023-01-17T14:14:46.909Z,92260.16
2023-01-17T14:17:55.959Z,92260.13
2023-01-17T14:20:48.583Z,92258.25
2023-01-17T14:23:49.381Z,92254.59
2023-01-17T14:26:33.235Z,92251.75
2023-01-17T14:29:40.832Z,92248.38
2023-01-17T14:32:15.092Z,92233.59
2023-01-17T14:34:47.457Z,92220.63
2023-01-17T14:37:30.023Z,92210.81
2023-01-17T14:40:00.164Z,92209.94
2023-01-17T14:42:33.475Z,92203.78
2023-01-17T14:45:09.919Z,92201.88
2023-01-17T14:47:42.353Z,92200.34
2023-01-17T14:50:24.374Z,92193.84
2023-01-17T14:53:22.548Z,92199.03
2023-01-17T14:55:55.206Z,92207.09
2023-01-17T14:58:27.295Z,92214.28
2023-01-17T15:01:04.175Z,92225.66
2023-01-17T15:03:47.988Z,92215.28
2023-01-17T15:06:22.342Z,92210.91
2023-01-17T15:08:54.651Z,92207.53
2023-01-17T15:11:30.192Z,92204.16
2023-01-17T15:14:05.903Z,92199.50
2023-01-17T15:16:41.382Z,92200.50
2023-01-17T15:19:15.454Z,92204.88
2023-01-17T15:21:50.434Z,92203.31
2023-01-17T15:24:25.670Z,92205.06
2023-01-17T15:26:55.806Z,92196.00
2023-01-17T15:29:30.086Z,92195.69
2023-01-17T15:32:05.614Z,92184.38
2023-01-17T15:34:39.070Z,92187.16
2023-01-17T15:37:24.314Z,92185.31
2023-01-17T15:39:54.413Z,92178.72
2023-01-17T15:42:28.586Z,92179.44
2023-01-17T15:45:03.624Z,92180.03
2023-01-17T15:47:39.865Z,92172.94
2023-01-17T15:50:32.440Z,92160.22
2023-01-17T15:53:04.782Z,92155.22
2023-01-17T15:55:37.657Z,92164.97
2023-01-17T15:58:24.339Z,92169.53
2023-01-17T16:00:54.269Z,92169.00
2023-01-17T16:03:30.124Z,92152.66
2023-01-17T16:06:03.148Z,92164.38
2023-01-17T16:08:38.609Z,92163.06
2023-01-17T16:11:10.360Z,92169.47
2023-01-17T16:13:43.311Z,92173.69
2023-01-17T16:16:21.956Z,92172.31
2023-01-17T16:19:02.707Z,92170.47
2023-01-17T16:21:34.542Z,92165.06
2023-01-17T16:24:05.593Z,92158.66
2023-01-17T16:26:35.448Z,92152.72
2023-01-17T16:29:05.273Z,92151.47
2023-01-17T16:31:35.476Z,92161.88
2023-01-17T16:34:13.804Z,92160.22
2023-01-17T16:36:43.656Z,92178.63
2023-01-17T16:39:16.985Z,92176.25
2023-01-17T16:41:46.768Z,92183.47
2023-01-17T16:44:16.848Z,92190.22
2023-01-17T16:46:47.422Z,92184.00
2023-01-17T16:49:20.056Z,92192.56
2023-01-17T16:51:50.074Z,92192.56
2023-01-17T16:54:19.974Z,92199.09
2023-01-17T16:56:50.002Z,92206.56
2023-01-17T16:59:19.894Z,92207.59
2023-01-17T17:01:50.553Z,92202.75
2023-01-17T17:04:23.035Z,92208.41
2023-01-17T17:06:52.832Z,92213.31
2023-01-17T17:09:22.852Z,92210.94
2023-01-17T17:11:52.654Z,92222.84
2023-01-17T17:14:22.807Z,92229.06
2023-01-17T17:16:52.619Z,92227.59
2023-01-17T17:19:25.276Z,92230.41
2023-01-17T17:21:55.113Z,92235.81
2023-01-17T17:24:24.892Z,92229.44
2023-01-17T17:26:54.899Z,92243.94
2023-01-17T17:29:24.834Z,92250.22
2023-01-17T17:31:54.775Z,92258.16
2023-01-17T17:34:28.287Z,92261.41
2023-01-17T17:36:58.079Z,92256.47
2023-01-17T17:39:27.849Z,92258.84
2023-01-17T17:41:57.615Z,92257.28
2023-01-17T17:44:27.658Z,92249.97
2023-01-17T17:46:57.533Z,92257.81
2023-01-17T17:49:29.927Z,92254.19
2023-01-17T17:52:06.779Z,92235.22
2023-01-17T17:54:36.810Z,92228.44
2023-01-17T17:57:07.589Z,92238.72
2023-01-17T17:59:37.421Z,92233.91
2023-01-17T18:02:11.138Z,92228.78
2023-01-17T18:04:43.654Z,92228.50
2023-01-17T18:07:13.495Z,92235.72
2023-01-17T18:09:43.277Z,92246.06
2023-01-17T18:12:13.139Z,92244.75
2023-01-17T18:14:43.073Z,92246.28
2023-01-17T18:17:15.249Z,92241.63
2023-01-17T18:19:47.656Z,92243.38
2023-01-17T18:22:17.514Z,92241.34
2023-01-17T18:24:47.337Z,92250.16
2023-01-17T18:27:17.198Z,92256.25
2023-01-17T18:29:47.114Z,92263.50
2023-01-17T18:32:16.934Z,92270.25
2023-01-17T18:34:49.365Z,92285.13
2023-01-17T18:37:19.887Z,92283.66
2023-01-17T18:39:49.703Z,92289.59
2023-01-17T18:42:21.207Z,92287.41
2023-01-17T18:44:52.263Z,92293.72
2023-01-17T18:49:54.890Z,92304.00
2023-01-17T18:52:24.781Z,92315.19
2023-01-17T18:54:54.599Z,92326.88
2023-01-17T18:57:24.491Z,92322.28
2023-01-17T18:59:54.344Z,92326.50
2023-01-17T19:02:24.299Z,92335.81
2023-01-17T19:04:56.750Z,92350.03
2023-01-17T19:07:29.180Z,92354.44
2023-01-17T19:09:58.968Z,92352.53
2023-01-17T19:12:29.003Z,92349.44
2023-01-17T19:14:58.835Z,92344.19
2023-01-17T19:17:28.614Z,92349.50
2023-01-17T19:20:01.043Z,92346.72
2023-01-17T19:22:30.865Z,92353.00
2023-01-17T19:25:00.670Z,92352.41
2023-01-17T19:27:30.444Z,92359.06
2023-01-17T19:30:00.355Z,92366.19
2023-01-17T19:32:30.438Z,92368.09
2023-01-17T19:35:02.965Z,92371.16
2023-01-17T19:37:32.807Z,92370.00
2023-01-17T19:40:02.733Z,92368.88
2023-01-17T19:42:32.532Z,92355.38
2023-01-17T19:45:02.363Z,92368.44
2023-01-17T19:47:32.195Z,92364.31
2023-01-17T19:50:04.904Z,92370.13
2023-01-17T19:52:34.952Z,92354.44
2023-01-17T19:55:07.135Z,92345.81
2023-01-17T19:57:37.057Z,92369.25
2023-01-17T20:00:12.327Z,92365.59
2023-01-17T20:02:45.674Z,92362.81
2023-01-17T20:05:19.662Z,92359.31
2023-01-17T20:07:49.924Z,92362.03
2023-01-17T20:10:21.071Z,92346.97
2023-01-17T20:12:51.049Z,92354.59
2023-01-17T20:15:23.045Z,92347.00
2023-01-17T20:17:53.185Z,92345.94
2023-01-17T20:20:25.699Z,92341.72
2023-01-17T20:22:55.614Z,92342.56
2023-01-17T20:25:25.397Z,92345.69
2023-01-17T20:27:55.679Z,92346.47
2023-01-17T20:30:30.075Z,92357.28
2023-01-17T20:32:59.984Z,92361.44
2023-01-17T20:35:35.077Z,92361.97
2023-01-17T20:38:04.872Z,92369.66
2023-01-17T20:40:34.704Z,92364.75
2023-01-17T20:43:04.509Z,92364.97
2023-01-17T20:45:34.395Z,92353.28
2023-01-17T20:48:05.001Z,92354.34
2023-01-17T20:50:37.777Z,92358.66
2023-01-17T20:53:07.628Z,92358.19
2023-01-17T20:55:40.010Z,92365.47
2023-01-17T20:58:09.872Z,92367.50
2023-01-17T21:00:40.459Z,92367.56
2023-01-17T21:03:10.315Z,92360.84
2023-01-17T21:05:42.724Z,92358.81
2023-01-17T21:08:17.139Z,92360.66
2023-01-17T21:10:50.598Z,92361.19
2023-01-17T21:13:20.654Z,92359.69
2023-01-17T21:15:52.143Z,92351.66
2023-01-17T21:18:24.974Z,92357.28
2023-01-17T21:20:57.496Z,92365.59
2023-01-17T21:23:29.374Z,92364.03
2023-01-17T21:26:00.031Z,92359.56
2023-01-17T21:28:32.197Z,92363.25
2023-01-17T21:31:02.811Z,92360.84
2023-01-17T21:33:32.645Z,92364.69
2023-01-17T21:36:12.138Z,92369.47
2023-01-17T21:38:42.138Z,92367.69
2023-01-17T21:41:12.037Z,92364.56
2023-01-17T21:43:41.820Z,92363.78
2023-01-17T21:46:11.909Z,92368.63
2023-01-17T21:48:44.481Z,92370.94
2023-01-17T21:51:17.084Z,92377.34
2023-01-17T21:53:46.896Z,92365.88
2023-01-17T21:56:29.756Z,92357.34
2023-01-17T21:59:01.056Z,92363.03
2023-01-17T22:01:34.893Z,92375.41
2023-01-17T22:04:06.724Z,92381.81
2023-01-17T22:06:39.392Z,92382.66
2023-01-17T22:09:09.552Z,92378.84
2023-01-17T22:11:39.834Z,92384.38
2023-01-17T22:14:09.714Z,92392.69
2023-01-17T22:16:39.554Z,92399.34
2023-01-17T22:19:09.447Z,92398.03
2023-01-17T22:21:43.857Z,92400.59
2023-01-17T22:24:16.706Z,92401.91
2023-01-17T22:26:46.568Z,92402.94
2023-01-17T22:29:18.957Z,92404.50
2023-01-17T22:31:49.017Z,92405.78
2023-01-17T22:34:19.060Z,92410.19
2023-01-17T22:36:51.534Z,92415.84
2023-01-17T22:39:21.398Z,92411.78
2023-01-17T22:41:51.214Z,92416.72
2023-01-17T22:44:20.997Z,92411.53
2023-01-17T22:46:50.848Z,92409.03
2023-01-17T22:49:23.435Z,92410.59
2023-01-17T22:51:55.827Z,92406.28
2023-01-17T22:54:25.768Z,92402.63
2023-01-17T22:56:55.590Z,92403.88
2023-01-17T22:59:25.532Z,92405.59
2023-01-17T23:04:55.151Z,92406.69
2023-01-17T23:07:30.136Z,92407.47
2023-01-17T23:10:03.847Z,92403.06
2023-01-17T23:12:36.080Z,92413.97
2023-01-17T23:15:30.384Z,92412.41
2023-01-17T23:18:12.897Z,92416.72
2023-01-17T23:20:44.194Z,92416.72
2023-01-17T23:23:16.643Z,92416.16
2023-01-17T23:25:46.549Z,92408.66
2023-01-17T23:28:21.007Z,92415.38
2023-01-17T23:30:54.831Z,92410.69
2023-01-17T23:33:27.101Z,92407.63
2023-01-17T23:35:59.607Z,92406.00
2023-01-17T23:38:38.705Z,92410.69
2023-01-17T23:41:24.845Z,92411.22
2023-01-17T23:43:55.981Z,92417.94
2023-01-17T23:46:30.447Z,92419.22
2023-01-17T23:49:00.589Z,92417.91
2023-01-17T23:51:32.715Z,92422.28
2023-01-17T23:54:05.482Z,92418.59
2023-01-17T23:56:36.032Z,92418.59
2023-01-17T23:59:06.455Z,92413.91
